Time;durP1;ratioP1;P1;durP2;ratioP2;P2;SDS_P1;SDS_P2;PMS_P1;PMS_P2;Temp;Humidity;BMP_temperature;BMP_pressure;BME280_temperature;BME280_humidity;BME280_pressure;Samples;Min_cycle;Max_cycle;Signal;HPM_P1;HPM_P2
2023/07/06 00:03:59;;;;;;;10.50;5.90;;;12.60;99.90;;;;;;8286836;28;20023;-77
2023/07/06 00:08:59;;;;;;;10.13;6.07;;;12.60;99.90;;;;;;8319800;22;20045;-76
2023/07/06 00:18:03;;;;;;;8.68;6.45;;;12.50;99.90;;;;;;8284809;28;20029;-77
2023/07/06 00:22:08;;;;;;;10.77;6.55;;;12.30;99.90;;;;;;8349458;28;20022;-77
2023/07/06 00:26:11;;;;;;;10.50;5.65;;;12.20;99.90;;;;;;8343407;28;20041;-77
2023/07/06 00:30:17;;;;;;;9.07;6.50;;;12.40;99.90;;;;;;8277911;28;20466;-77
2023/07/06 00:34:19;;;;;;;9.32;6.72;;;12.50;99.90;;;;;;8272613;28;20022;-78
2023/07/06 00:38:23;;;;;;;12.30;6.63;;;12.40;99.90;;;;;;8269973;28;20023;-77
2023/07/06 00:42:24;;;;;;;11.20;6.82;;;12.20;99.90;;;;;;8282248;28;20030;-76
2023/07/06 00:46:29;;;;;;;7.65;5.90;;;11.90;99.90;;;;;;8316969;28;20398;-77
2023/07/06 00:50:31;;;;;;;11.27;6.05;;;11.90;99.90;;;;;;8333056;28;20122;-77
2023/07/06 00:54:37;;;;;;;11.40;6.25;;;11.80;99.90;;;;;;8314233;28;20641;-78
2023/07/06 00:58:43;;;;;;;8.95;5.95;;;11.70;99.90;;;;;;8283833;28;20022;-77
2023/07/06 01:02:44;;;;;;;9.27;5.97;;;11.60;99.90;;;;;;8281289;28;20026;-77
2023/07/06 01:06:49;;;;;;;9.30;6.32;;;11.40;99.90;;;;;;8299669;28;20079;-77
2023/07/06 01:10:52;;;;;;;10.32;6.20;;;11.30;99.90;;;;;;8284107;28;20095;-77
2023/07/06 01:14:53;;;;;;;8.90;6.13;;;11.40;99.90;;;;;;8288536;28;20026;-77
2023/07/06 01:23:29;;;;;;;12.90;6.67;;;11.50;99.90;;;;;;8381884;28;20597;-78
2023/07/06 01:27:51;;;;;;;11.85;5.85;;;11.60;99.90;;;;;;8379161;28;20032;-77
2023/07/06 01:31:51;;;;;;;9.38;5.85;;;11.30;99.90;;;;;;8385906;28;20478;-76
2023/07/06 01:41:14;;;;;;;12.10;6.47;;;10.80;99.90;;;;;;8301915;28;20021;-77
2023/07/06 01:46:26;;;;;;;9.77;6.25;;;10.90;99.90;;;;;;8378534;22;20115;-77
2023/07/06 01:51:05;;;;;;;;;;;;;;;;;;;;;
2023/07/06 01:56:01;;;;;;;10.30;7.07;;;10.90;99.90;;;;;;8285342;28;20034;-77
2023/07/06 02:00:34;;;;;;;10.05;6.72;;;10.90;99.90;;;;;;8249893;28;20112;-77
2023/07/06 02:04:38;;;;;;;14.23;6.13;;;10.90;99.90;;;;;;8237410;28;20121;-77
2023/07/06 02:08:41;;;;;;;9.13;5.65;;;10.80;99.90;;;;;;8299195;28;20458;-77
2023/07/06 02:12:47;;;;;;;9.88;5.68;;;10.70;99.90;;;;;;8254752;28;20102;-77
2023/07/06 02:16:50;;;;;;;10.52;6.40;;;10.50;99.90;;;;;;8282249;23;20136;-77
2023/07/06 02:20:53;;;;;;;14.63;6.43;;;10.30;99.90;;;;;;8241439;28;20514;-76
2023/07/06 02:24:54;;;;;;;12.35;6.68;;;10.20;99.90;;;;;;8313073;28;20399;-77
2023/07/06 02:28:55;;;;;;;10.52;6.43;;;10.20;99.90;;;;;;8333651;28;20087;-77
2023/07/06 02:32:56;;;;;;;11.57;6.57;;;10.10;99.90;;;;;;8248209;28;20072;-77
2023/07/06 02:36:56;;;;;;;10.82;6.38;;;9.80;99.90;;;;;;8243344;28;20038;-78
2023/07/06 02:40:57;;;;;;;12.10;6.95;;;9.80;99.90;;;;;;8302515;28;20655;-77
2023/07/06 02:44:58;;;;;;;12.82;7.43;;;9.80;99.90;;;;;;8292427;28;20022;-77
2023/07/06 02:48:58;;;;;;;17.27;7.50;;;9.90;99.90;;;;;;8244077;28;20476;-77
2023/07/06 02:52:59;;;;;;;22.25;8.13;;;9.90;99.90;;;;;;8242807;28;20105;-77
2023/07/06 02:57:02;;;;;;;19.95;8.50;;;9.90;99.90;;;;;;8245804;28;20033;-77
2023/07/06 03:01:04;;;;;;;15.32;7.53;;;9.80;99.90;;;;;;8309095;28;20175;-77
2023/07/06 03:05:05;;;;;;;13.05;7.07;;;9.70;99.90;;;;;;8250706;28;20023;-76
2023/07/06 03:09:30;;;;;;;12.15;6.90;;;9.60;99.90;;;;;;8430365;22;20075;-77
2023/07/06 03:13:33;;;;;;;14.15;5.95;;;9.70;99.90;;;;;;8390883;28;20035;-76
2023/07/06 03:17:53;;;;;;;10.05;6.40;;;9.60;99.90;;;;;;8415839;28;20058;-77
2023/07/06 03:22:36;;;;;;;12.70;6.53;;;9.80;99.90;;;;;;8274777;28;20076;-77
2023/07/06 03:26:41;;;;;;;11.80;6.20;;;9.80;99.90;;;;;;8245696;28;20570;-77
2023/07/06 03:31:09;;;;;;;12.90;6.05;;;9.80;99.90;;;;;;8275693;28;20018;-77
2023/07/06 03:35:22;;;;;;;15.20;6.00;;;9.80;99.90;;;;;;8265390;28;20057;-77
2023/07/06 03:39:22;;;;;;;14.07;6.15;;;9.80;99.90;;;;;;8273302;28;20037;-77
2023/07/06 03:48:21;;;;;;;12.70;6.03;;;9.50;99.90;;;;;;8423195;28;20111;-77
2023/07/06 03:52:31;;;;;;;16.27;6.20;;;9.50;99.90;;;;;;8383047;28;20029;-78
2023/07/06 03:56:32;;;;;;;11.75;6.63;;;9.60;99.90;;;;;;8416584;28;20491;-77
2023/07/06 04:00:34;;;;;;;10.68;6.53;;;9.70;99.90;;;;;;8416064;28;20032;-77
2023/07/06 04:04:35;;;;;;;13.98;6.75;;;9.90;99.90;;;;;;8389391;28;20383;-77
2023/07/06 04:08:36;;;;;;;10.80;6.30;;;10.20;99.90;;;;;;8399656;28;20024;-77
2023/07/06 04:12:37;;;;;;;10.27;5.25;;;10.40;99.90;;;;;;8392822;28;20051;-77
2023/07/06 04:16:39;;;;;;;7.90;4.93;;;10.80;99.90;;;;;;8414451;28;20064;-78
2023/07/06 04:20:41;;;;;;;7.47;4.60;;;11.00;99.90;;;;;;8409258;28;20030;-77
2023/07/06 04:24:45;;;;;;;8.43;5.60;;;11.50;99.90;;;;;;8419178;28;20031;-78
2023/07/06 04:28:47;;;;;;;6.85;4.93;;;12.20;99.90;;;;;;8406419;28;20082;-78
2023/07/06 04:32:49;;;;;;;7.25;4.55;;;12.80;99.90;;;;;;8413184;28;20027;-78
2023/07/06 04:36:50;;;;;;;6.18;4.60;;;13.20;99.90;;;;;;8399705;28;20024;-77
2023/07/06 04:40:51;;;;;;;10.35;4.63;;;13.60;99.90;;;;;;8398080;28;20051;-77
2023/07/06 04:44:52;;;;;;;6.38;4.32;;;14.10;99.90;;;;;;8377209;28;20052;-78
2023/07/06 04:48:53;;;;;;;6.00;4.15;;;14.60;99.90;;;;;;8398047;28;20401;-82
2023/07/06 04:53:00;;;;;;;6.25;4.45;;;14.90;99.90;;;;;;8396321;28;20025;-82
2023/07/06 04:57:04;;;;;;;7.95;4.53;;;15.60;99.90;;;;;;8411477;28;20020;-82
2023/07/06 05:01:07;;;;;;;7.57;4.38;;;16.30;99.90;;;;;;8412367;28;20024;-82
2023/07/06 05:05:11;;;;;;;6.95;4.50;;;16.90;99.90;;;;;;8397823;28;20025;-80
2023/07/06 05:09:12;;;;;;;5.15;3.53;;;17.30;99.90;;;;;;8410604;28;20024;-82
2023/07/06 05:13:12;;;;;;;7.43;3.92;;;17.30;99.90;;;;;;8410537;28;20486;-81
2023/07/06 05:17:14;;;;;;;6.00;3.70;;;17.80;99.90;;;;;;8415584;28;20033;-82
2023/07/06 05:21:15;;;;;;;6.07;4.25;;;18.70;99.90;;;;;;8401907;28;20020;-82
2023/07/06 05:25:19;;;;;;;8.68;3.97;;;18.80;99.90;;;;;;8398930;28;20028;-82
2023/07/06 05:29:20;;;;;;;7.28;4.28;;;19.20;99.90;;;;;;8401155;28;20103;-81
2023/07/06 05:33:20;;;;;;;6.32;3.95;;;20.00;99.90;;;;;;8397270;28;20024;-81
2023/07/06 05:37:21;;;;;;;8.27;4.40;;;20.40;99.90;;;;;;8401620;28;20028;-81
2023/07/06 05:41:22;;;;;;;8.07;4.10;;;20.10;99.90;;;;;;8393191;28;20038;-83
2023/07/06 05:45:22;;;;;;;6.10;4.53;;;19.80;99.90;;;;;;8393541;28;20032;-82
2023/07/06 05:49:23;;;;;;;7.22;4.60;;;20.10;99.90;;;;;;8395895;28;20454;-80
2023/07/06 05:53:23;;;;;;;6.15;4.47;;;20.20;99.90;;;;;;8380566;28;20027;-81
2023/07/06 05:57:24;;;;;;;8.52;4.40;;;19.90;99.90;;;;;;8413443;28;20058;-81
2023/07/06 06:01:24;;;;;;;8.70;4.85;;;20.50;99.90;;;;;;8408022;28;20031;-81
2023/07/06 06:05:25;;;;;;;8.77;4.40;;;20.90;99.90;;;;;;8411981;28;20025;-79
2023/07/06 06:09:25;;;;;;;7.97;4.32;;;21.30;99.90;;;;;;8406054;28;20077;-80
2023/07/06 06:13:27;;;;;;;7.28;3.92;;;22.00;99.90;;;;;;8411825;28;20116;-79
2023/07/06 06:17:28;;;;;;;6.35;4.50;;;22.60;99.90;;;;;;8399876;28;20024;-79
2023/07/06 06:21:30;;;;;;;7.43;4.78;;;23.00;99.90;;;;;;8403490;28;20016;-79
2023/07/06 06:25:31;;;;;;;5.28;4.35;;;22.60;99.90;;;;;;8389849;28;20532;-79
2023/07/06 06:29:33;;;;;;;7.38;4.25;;;23.00;99.90;;;;;;8395079;28;20056;-79
2023/07/06 06:33:33;;;;;;;5.82;4.63;;;23.50;99.90;;;;;;8419419;28;20020;-79
2023/07/06 06:37:34;;;;;;;6.65;4.80;;;23.50;99.90;;;;;;8384700;28;20489;-79
2023/07/06 06:41:38;;;;;;;6.10;4.95;;;23.80;99.90;;;;;;8413717;28;20024;-79
2023/07/06 06:45:39;;;;;;;7.07;4.45;;;24.00;99.90;;;;;;8402663;28;20021;-79
2023/07/06 06:49:40;;;;;;;6.18;4.50;;;23.90;99.90;;;;;;8392518;28;20064;-78
2023/07/06 06:53:40;;;;;;;7.03;4.72;;;23.00;99.90;;;;;;8413782;28;20023;-79
2023/07/06 06:57:42;;;;;;;8.35;5.05;;;22.10;99.90;;;;;;8418180;28;20020;-79
2023/07/06 07:01:42;;;;;;;7.72;5.18;;;22.20;99.90;;;;;;8419136;28;20035;-78
2023/07/06 07:05:43;;;;;;;11.20;5.85;;;22.50;99.90;;;;;;8422524;28;20044;-79
2023/07/06 07:09:45;;;;;;;6.85;4.63;;;22.90;99.90;;;;;;8425103;28;20052;-79
2023/07/06 07:13:47;;;;;;;8.60;4.95;;;22.90;99.90;;;;;;8418050;28;20494;-77
2023/07/06 07:17:47;;;;;;;7.00;4.68;;;22.20;99.90;;;;;;8423179;28;20031;-79
2023/07/06 07:21:50;;;;;;;7.95;4.80;;;21.90;99.90;;;;;;8392754;28;20032;-78
2023/07/06 07:25:51;;;;;;;6.47;4.50;;;22.00;99.90;;;;;;8415978;28;20055;-79
2023/07/06 07:29:54;;;;;;;7.90;4.47;;;22.50;99.90;;;;;;8426382;28;20016;-78
2023/07/06 07:33:54;;;;;;;8.68;5.00;;;23.30;99.90;;;;;;8409099;28;20393;-80
2023/07/06 07:37:55;;;;;;;6.80;4.63;;;23.70;99.90;;;;;;8423011;28;20054;-79
2023/07/06 07:41:56;;;;;;;6.32;4.28;;;24.30;99.90;;;;;;8421280;28;20044;-79
2023/07/06 07:46:05;;;;;;;6.93;4.82;;;24.40;99.90;;;;;;8406033;28;20455;-79
2023/07/06 07:50:07;;;;;;;7.72;4.70;;;24.90;99.90;;;;;;8418916;28;20048;-79
2023/07/06 07:54:07;;;;;;;9.05;5.47;;;24.10;99.90;;;;;;8421075;28;20032;-79
2023/07/06 07:58:08;;;;;;;7.13;5.10;;;23.60;99.90;;;;;;8409915;28;20062;-79
2023/07/06 08:02:08;;;;;;;7.50;5.00;;;23.50;99.90;;;;;;8413575;28;20034;-79
2023/07/06 08:06:11;;;;;;;11.85;5.22;;;24.10;99.90;;;;;;8421499;28;20049;-79
2023/07/06 08:10:11;;;;;;;6.78;4.53;;;24.10;99.90;;;;;;8421115;28;20447;-80
2023/07/06 08:14:13;;;;;;;9.15;4.68;;;24.50;99.90;;;;;;8417049;28;20024;-80
2023/07/06 08:18:15;;;;;;;6.28;4.40;;;24.70;99.90;;;;;;8404544;28;20440;-80
2023/07/06 08:22:17;;;;;;;5.78;4.28;;;25.30;99.90;;;;;;8416080;28;20112;-79
2023/07/06 08:26:17;;;;;;;5.85;4.28;;;25.60;99.90;;;;;;8398564;28;20081;-81
2023/07/06 08:30:20;;;;;;;4.55;3.40;;;25.90;99.90;;;;;;8419108;28;20029;-80
2023/07/06 08:34:21;;;;;;;4.72;3.28;;;26.60;99.90;;;;;;8410697;28;20022;-80
2023/07/06 08:38:22;;;;;;;5.50;3.50;;;26.40;99.90;;;;;;8419116;28;20024;-80
2023/07/06 08:42:22;;;;;;;5.20;3.53;;;26.90;99.90;;;;;;8408825;28;20478;-80
2023/07/06 08:46:23;;;;;;;5.50;3.53;;;26.70;99.90;;;;;;8417234;28;20093;-80
2023/07/06 08:50:31;;;;;;;4.38;2.90;;;26.30;99.90;;;;;;8419268;28;20024;-80
2023/07/06 08:54:36;;;;;;;5.00;2.92;;;26.20;99.50;;;;;;8408519;28;20031;-79
2023/07/06 08:58:41;;;;;;;3.40;2.80;;;25.60;99.90;;;;;;8420629;28;20035;-79
2023/07/06 09:02:42;;;;;;;5.05;2.95;;;26.10;98.60;;;;;;8416698;28;20230;-80
2023/07/06 09:06:48;;;;;;;4.35;3.15;;;26.90;99.40;;;;;;8421397;28;20683;-80
2023/07/06 09:10:49;;;;;;;4.32;3.33;;;27.50;96.70;;;;;;8415602;28;20457;-80
2023/07/06 09:14:51;;;;;;;4.57;2.95;;;26.60;95.20;;;;;;8391070;28;20588;-80
2023/07/06 09:18:53;;;;;;;4.03;3.33;;;26.90;97.00;;;;;;8406345;28;20504;-80
2023/07/06 09:22:53;;;;;;;3.95;2.85;;;27.10;94.50;;;;;;8422407;28;20027;-80
2023/07/06 09:26:58;;;;;;;4.60;3.22;;;26.20;91.80;;;;;;8419227;28;20028;-79
2023/07/06 09:31:18;;;;;;;3.58;2.70;;;25.20;93.50;;;;;;8409773;28;20023;-78
2023/07/06 09:35:21;;;;;;;4.35;3.00;;;24.10;94.30;;;;;;8415304;28;20019;-78
2023/07/06 09:39:23;;;;;;;7.60;2.75;;;24.00;94.00;;;;;;8418896;28;20025;-78
2023/07/06 09:43:27;;;;;;;5.07;2.83;;;23.90;94.60;;;;;;8413452;28;20099;-78
2023/07/06 09:47:30;;;;;;;4.78;3.20;;;24.30;95.20;;;;;;8416007;28;20053;-78
2023/07/06 09:51:44;;;;;;;4.97;2.95;;;25.10;93.40;;;;;;8385412;28;20032;-79
2023/07/06 09:55:45;;;;;;;4.47;2.88;;;26.50;94.60;;;;;;8381855;28;20454;-79
2023/07/06 09:59:48;;;;;;;4.93;2.90;;;27.10;91.90;;;;;;8408947;28;20031;-79
2023/07/06 10:03:54;;;;;;;3.67;2.78;;;27.70;92.90;;;;;;8392289;28;20029;-79
2023/07/06 10:08:14;;;;;;;4.18;3.10;;;27.90;82.60;;;;;;8395854;28;20099;-79
2023/07/06 10:12:38;;;;;;;;;;;27.90;83.50;;;;;;8395085;28;20033;-78
2023/07/06 10:16:52;;;;;;;4.57;2.90;;;27.80;82.70;;;;;;8377641;28;19947;-78
2023/07/06 10:21:27;;;;;;;6.20;4.03;;;27.50;92.50;;;;;;8391618;28;20035;-78
2023/07/06 10:25:54;;;;;;;6.00;3.42;;;26.00;93.80;;;;;;8335031;28;20098;-78
2023/07/06 10:30:01;;;;;;;3.92;2.97;;;26.60;92.40;;;;;;8381108;28;20039;-78
2023/07/06 10:34:10;;;;;;;10.05;2.90;;;27.50;87.90;;;;;;8418939;28;20489;-79
2023/07/06 10:38:11;;;;;;;5.72;3.25;;;28.40;88.00;;;;;;8427593;28;20502;-79
2023/07/06 10:42:24;;;;;;;4.65;3.20;;;29.00;82.50;;;;;;8422121;28;20466;-79
2023/07/06 10:46:34;;;;;;;3.55;2.65;;;30.00;82.10;;;;;;8413360;28;20056;-78
2023/07/06 10:50:45;;;;;;;5.28;3.17;;;28.90;80.10;;;;;;8420198;28;20402;-78
2023/07/06 10:54:47;;;;;;;4.97;3.05;;;26.80;79.30;;;;;;8421586;28;20504;-80
2023/07/06 10:58:56;;;;;;;4.65;3.22;;;25.60;83.10;;;;;;8411512;28;20486;-78
2023/07/06 11:03:00;;;;;;;5.55;3.10;;;24.90;85.90;;;;;;8417079;28;20051;-78
2023/07/06 11:07:01;;;;;;;6.30;3.50;;;25.10;92.20;;;;;;8403364;28;20023;-78
2023/07/06 11:11:02;;;;;;;5.72;3.28;;;26.80;83.10;;;;;;8423025;28;20520;-78
2023/07/06 11:15:41;;;;;;;5.78;3.42;;;26.50;81.80;;;;;;8415251;28;20103;-78
2023/07/06 11:20:07;;;;;;;6.15;3.05;;;25.80;88.20;;;;;;8373855;28;20036;-78
2023/07/06 11:24:16;;;;;;;5.68;4.22;;;26.90;79.30;;;;;;8388765;28;20051;-78
2023/07/06 11:28:22;;;;;;;6.55;3.22;;;27.20;78.90;;;;;;8416946;28;20028;-78
2023/07/06 11:32:36;;;;;;;4.55;3.47;;;28.80;87.60;;;;;;8405961;28;20020;-78
2023/07/06 11:36:55;;;;;;;4.30;3.30;;;28.70;84.70;;;;;;8421065;28;20027;-78
2023/07/06 11:41:14;;;;;;;5.03;2.33;;;29.60;72.00;;;;;;8421003;28;20012;-77
2023/07/06 11:45:40;;;;;;;5.65;2.95;;;28.90;75.60;;;;;;8417050;28;20106;-78
2023/07/06 11:49:53;;;;;;;4.65;2.90;;;29.00;70.30;;;;;;8391386;28;20401;-78
2023/07/06 11:53:57;;;;;;;5.20;3.38;;;28.50;70.10;;;;;;8413600;28;20016;-78
2023/07/06 11:58:07;;;;;;;3.97;2.25;;;27.40;74.40;;;;;;8402197;28;20020;-78
2023/07/06 12:02:16;;;;;;;8.00;2.20;;;27.30;75.80;;;;;;8380960;28;20035;-77
2023/07/06 12:06:17;;;;;;;4.80;2.42;;;28.10;77.40;;;;;;8394403;28;20394;-78
2023/07/06 12:10:19;;;;;;;5.70;2.67;;;29.40;78.40;;;;;;8376891;28;20119;-80
2023/07/06 12:14:20;;;;;;;4.25;2.28;;;31.20;75.00;;;;;;8393832;28;20062;-78
2023/07/06 12:18:23;;;;;;;6.30;3.90;;;31.30;65.10;;;;;;8408421;28;20059;-79
2023/07/06 12:22:23;;;;;;;5.97;3.45;;;30.40;66.70;;;;;;8416130;28;20020;-79
2023/07/06 12:26:24;;;;;;;5.07;3.80;;;31.70;65.80;;;;;;8411771;28;20115;-79
2023/07/06 12:30:33;;;;;;;6.65;3.60;;;33.40;61.80;;;;;;8394108;28;20051;-80
2023/07/06 12:34:35;;;;;;;8.93;3.75;;;34.20;59.70;;;;;;8381602;28;20021;-79
2023/07/06 12:38:38;;;;;;;5.47;3.83;;;34.10;53.60;;;;;;8400756;28;20023;-79
2023/07/06 12:42:39;;;;;;;5.68;3.83;;;33.70;57.00;;;;;;8396134;28;20549;-79
2023/07/06 12:46:47;;;;;;;4.43;3.60;;;35.10;55.00;;;;;;8403251;28;20808;-79
2023/07/06 12:50:50;;;;;;;7.13;3.88;;;35.40;54.40;;;;;;8401552;28;20508;-79
2023/07/06 12:54:54;;;;;;;5.32;3.97;;;35.60;52.10;;;;;;8385532;28;20034;-78
2023/07/06 12:59:04;;;;;;;6.22;3.92;;;36.10;49.70;;;;;;8379968;28;20406;-80
2023/07/06 13:03:10;;;;;;;5.22;3.95;;;35.50;52.10;;;;;;8386143;28;20067;-79
2023/07/06 13:07:10;;;;;;;5.60;4.07;;;35.50;48.40;;;;;;8393639;28;20039;-79
2023/07/06 13:11:12;;;;;;;5.85;3.70;;;35.60;48.20;;;;;;8397443;28;20021;-80
2023/07/06 13:15:21;;;;;;;6.70;4.18;;;36.00;45.60;;;;;;8396137;28;20056;-78
2023/07/06 13:19:23;;;;;;;5.20;3.80;;;36.00;45.10;;;;;;8386656;28;20034;-80
2023/07/06 13:23:24;;;;;;;5.22;3.90;;;36.20;45.80;;;;;;8408176;28;20020;-79
2023/07/06 13:27:24;;;;;;;5.05;3.72;;;36.70;46.80;;;;;;8385124;28;20120;-81
2023/07/06 13:31:26;;;;;;;4.93;3.38;;;37.80;42.20;;;;;;8393820;28;20055;-78
2023/07/06 13:35:26;;;;;;;4.57;3.67;;;37.70;43.50;;;;;;8392232;28;20105;-79
2023/07/06 13:39:27;;;;;;;4.10;3.38;;;37.50;43.90;;;;;;8373592;28;20268;-80
2023/07/06 13:43:28;;;;;;;4.85;3.88;;;37.70;44.50;;;;;;8391542;28;20032;-79
2023/07/06 13:47:29;;;;;;;30.80;4.93;;;37.20;43.60;;;;;;8397072;28;20020;-79
2023/07/06 13:51:31;;;;;;;4.82;4.00;;;37.90;39.90;;;;;;8391806;28;20012;-79
2023/07/06 13:55:44;;;;;;;18.73;4.63;;;39.00;40.10;;;;;;8380481;28;20027;-79
2023/07/06 13:59:46;;;;;;;4.50;3.42;;;37.90;40.00;;;;;;8404094;28;20684;-79
2023/07/06 14:03:46;;;;;;;4.68;3.83;;;36.70;43.20;;;;;;8404901;28;20105;-80
2023/07/06 14:07:48;;;;;;;5.88;3.97;;;37.80;40.80;;;;;;8397783;28;20020;-80
2023/07/06 14:11:49;;;;;;;10.75;4.40;;;38.80;38.70;;;;;;8416645;28;20020;-80
2023/07/06 14:15:50;;;;;;;4.40;3.78;;;39.10;36.60;;;;;;8406321;28;20107;-79
2023/07/06 14:19:54;;;;;;;4.70;3.63;;;39.00;39.50;;;;;;8394949;28;20020;-79
2023/07/06 14:23:55;;;;;;;5.05;4.00;;;37.80;40.50;;;;;;8400313;28;20036;-79
2023/07/06 14:27:56;;;;;;;4.78;3.95;;;37.90;38.90;;;;;;8361543;22;20349;-79
2023/07/06 14:31:56;;;;;;;5.50;4.35;;;35.40;43.40;;;;;;8252205;28;20057;-79
2023/07/06 14:35:57;;;;;;;6.00;3.72;;;35.20;42.30;;;;;;8265657;28;20508;-79
2023/07/06 14:39:57;;;;;;;5.78;4.20;;;36.00;43.50;;;;;;8256700;28;20102;-79
2023/07/06 14:43:58;;;;;;;5.88;3.90;;;37.80;40.30;;;;;;8255827;28;20159;-79
2023/07/06 14:48:01;;;;;;;4.13;3.42;;;38.50;41.50;;;;;;8250288;28;20060;-79
2023/07/06 14:52:02;;;;;;;5.15;3.92;;;38.60;39.50;;;;;;8233215;28;20510;-79
2023/07/06 14:56:03;;;;;;;4.90;3.70;;;35.30;43.90;;;;;;8248760;28;20038;-79
2023/07/06 15:00:05;;;;;;;8.27;4.18;;;35.70;41.10;;;;;;8255092;28;20030;-79
2023/07/06 15:04:06;;;;;;;5.07;3.67;;;36.00;39.00;;;;;;8255832;28;20415;-79
2023/07/06 15:08:06;;;;;;;4.75;3.53;;;36.50;41.20;;;;;;8296374;28;20116;-80
2023/07/06 15:12:07;;;;;;;4.05;3.65;;;35.50;42.10;;;;;;8242461;28;20030;-80
2023/07/06 15:16:08;;;;;;;4.63;3.70;;;36.40;38.70;;;;;;8281217;28;20034;-79
2023/07/06 15:20:10;;;;;;;5.20;3.40;;;36.20;38.90;;;;;;8312067;28;20046;-79
2023/07/06 15:24:11;;;;;;;5.53;3.42;;;35.30;40.60;;;;;;8259480;28;20523;-78
2023/07/06 15:28:11;;;;;;;3.92;3.38;;;35.70;40.50;;;;;;8250970;28;20045;-78
2023/07/06 15:32:12;;;;;;;4.45;3.42;;;35.30;40.20;;;;;;8244188;28;20280;-80
2023/07/06 15:36:13;;;;;;;5.00;3.70;;;33.90;41.70;;;;;;8259055;28;20041;-80
2023/07/06 15:40:13;;;;;;;6.93;3.63;;;33.60;42.20;;;;;;8242961;28;20034;-77
2023/07/06 15:44:14;;;;;;;4.80;3.45;;;33.00;42.50;;;;;;8257058;28;20034;-79
2023/07/06 15:48:14;;;;;;;33.08;4.22;;;32.10;45.90;;;;;;8259042;28;20122;-79
2023/07/06 15:52:16;;;;;;;6.13;3.47;;;30.90;47.60;;;;;;8271766;28;20031;-78
2023/07/06 15:56:16;;;;;;;7.53;3.50;;;29.10;54.30;;;;;;8288228;28;20038;-81
2023/07/06 16:00:17;;;;;;;27.85;5.78;;;27.70;49.90;;;;;;8274124;28;20065;-80
2023/07/06 16:04:18;;;;;;;4.75;3.50;;;27.00;54.00;;;;;;8264421;28;20022;-79
2023/07/06 16:08:19;;;;;;;6.03;3.55;;;26.40;58.90;;;;;;8264325;28;20507;-80
2023/07/06 16:12:19;;;;;;;41.47;23.80;;;26.00;56.10;;;;;;8317155;28;20508;-79
2023/07/06 16:16:20;;;;;;;5.70;3.55;;;25.50;57.90;;;;;;8253318;28;20034;-79
2023/07/06 16:20:21;;;;;;;5.10;3.40;;;25.00;57.10;;;;;;8281850;28;20037;-78
2023/07/06 16:24:21;;;;;;;9.23;4.15;;;24.90;59.30;;;;;;8253595;28;20034;-79
2023/07/06 16:28:22;;;;;;;5.10;3.30;;;24.70;64.40;;;;;;8247027;28;20030;-79
2023/07/06 16:32:22;;;;;;;6.38;3.70;;;24.60;62.20;;;;;;8267591;28;20022;-78
2023/07/06 16:36:23;;;;;;;4.82;3.38;;;24.20;66.90;;;;;;8257409;28;20369;-79
2023/07/06 16:40:23;;;;;;;4.72;3.70;;;24.20;65.90;;;;;;8278490;28;20030;-79
2023/07/06 16:44:24;;;;;;;5.32;3.45;;;24.40;64.00;;;;;;8250366;28;20114;-80
2023/07/06 16:48:25;;;;;;;6.53;3.83;;;24.50;60.60;;;;;;8251528;28;20068;-79
2023/07/06 16:52:25;;;;;;;6.07;3.45;;;24.50;64.40;;;;;;8269307;28;20025;-80
2023/07/06 16:56:26;;;;;;;5.25;3.53;;;24.40;64.70;;;;;;8247478;28;20079;-79
2023/07/06 17:00:26;;;;;;;5.68;3.60;;;24.50;67.00;;;;;;8267050;28;20110;-78
2023/07/06 17:04:27;;;;;;;6.22;3.22;;;24.60;63.30;;;;;;8289075;28;20083;-78
2023/07/06 17:08:28;;;;;;;5.13;3.20;;;24.50;63.60;;;;;;8257192;28;20023;-80
2023/07/06 17:12:28;;;;;;;4.93;3.60;;;24.40;62.20;;;;;;8283620;28;20026;-80
2023/07/06 17:16:29;;;;;;;6.53;3.60;;;24.20;64.10;;;;;;8254000;28;20423;-78
2023/07/06 17:20:30;;;;;;;5.03;3.60;;;24.40;61.80;;;;;;8256402;28;20063;-79
2023/07/06 17:24:30;;;;;;;5.80;3.30;;;24.40;64.30;;;;;;8249884;28;20395;-79
2023/07/06 17:28:32;;;;;;;5.53;3.20;;;24.40;62.50;;;;;;8249843;28;20109;-79
2023/07/06 17:32:33;;;;;;;4.47;3.42;;;24.20;62.90;;;;;;8269766;28;20022;-77
2023/07/06 17:36:34;;;;;;;7.75;3.75;;;24.00;65.20;;;;;;8254393;28;20039;-79
2023/07/06 17:40:34;;;;;;;6.90;3.60;;;23.90;69.20;;;;;;8254053;28;20382;-79
2023/07/06 17:44:35;;;;;;;5.00;3.50;;;23.70;73.40;;;;;;8247084;28;20402;-79
2023/07/06 17:48:36;;;;;;;6.20;3.05;;;23.20;73.20;;;;;;8258017;28;20026;-80
2023/07/06 17:52:36;;;;;;;4.95;3.53;;;22.90;78.70;;;;;;8267786;28;20022;-79
2023/07/06 17:56:37;;;;;;;6.88;3.97;;;22.40;76.40;;;;;;8249049;28;20048;-79
2023/07/06 18:00:37;;;;;;;5.50;3.83;;;22.20;77.20;;;;;;8272233;28;20416;-80
2023/07/06 18:04:38;;;;;;;4.45;3.33;;;22.10;78.60;;;;;;8266548;28;20023;-79
2023/07/06 18:08:38;;;;;;;4.20;3.45;;;22.00;78.90;;;;;;8289867;28;20022;-80
2023/07/06 18:12:40;;;;;;;6.20;3.33;;;21.80;84.80;;;;;;8291677;28;21048;-80
2023/07/06 18:16:41;;;;;;;6.70;3.15;;;21.60;84.90;;;;;;8267924;28;20018;-80
2023/07/06 18:20:42;;;;;;;9.57;3.72;;;21.40;86.10;;;;;;8309678;28;20031;-79
2023/07/06 18:24:43;;;;;;;5.70;3.70;;;21.20;89.30;;;;;;8302902;28;20376;-79
2023/07/06 18:28:44;;;;;;;6.95;3.28;;;20.80;90.50;;;;;;8324333;28;20030;-78
2023/07/06 18:32:44;;;;;;;6.63;3.80;;;20.30;93.80;;;;;;8255848;28;20118;-79
2023/07/06 18:36:45;;;;;;;5.28;3.53;;;20.10;95.40;;;;;;8294708;28;20034;-78
2023/07/06 18:40:53;;;;;;;5.47;3.75;;;19.90;97.60;;;;;;8254603;28;20543;-78
2023/07/06 18:44:59;;;;;;;4.25;3.50;;;19.80;99.40;;;;;;8281283;28;20113;-79
2023/07/06 18:48:59;;;;;;;5.97;3.72;;;19.50;99.90;;;;;;8258103;28;20093;-79
2023/07/06 18:53:00;;;;;;;7.38;4.22;;;19.40;99.90;;;;;;8261154;28;20023;-79
2023/07/06 18:57:00;;;;;;;5.93;3.50;;;19.30;99.90;;;;;;8264481;28;20023;-79
2023/07/06 19:01:02;;;;;;;6.53;3.80;;;19.00;99.90;;;;;;8261599;28;20058;-79
2023/07/06 19:05:03;;;;;;;6.28;3.63;;;19.00;99.90;;;;;;8261779;28;20054;-79
2023/07/06 19:09:04;;;;;;;5.55;3.33;;;19.00;99.90;;;;;;8282349;28;20113;-78
2023/07/06 19:13:05;;;;;;;6.88;3.92;;;18.70;99.90;;;;;;8261976;28;20092;-78
2023/07/06 19:17:05;;;;;;;6.82;4.07;;;18.30;99.90;;;;;;8271890;28;20030;-84
2023/07/06 19:21:09;;;;;;;4.90;3.80;;;18.00;99.90;;;;;;8265369;28;20030;-83
2023/07/06 19:25:09;;;;;;;7.95;4.43;;;17.70;99.90;;;;;;8261789;28;20038;-84
2023/07/06 19:29:10;;;;;;;6.78;3.78;;;17.50;99.90;;;;;;8253901;28;20187;-83
2023/07/06 19:33:11;;;;;;;5.63;4.43;;;17.30;99.90;;;;;;8264890;28;20034;-83
2023/07/06 19:37:11;;;;;;;10.07;3.83;;;17.20;99.90;;;;;;8246968;28;20050;-83
2023/07/06 19:41:12;;;;;;;7.10;3.92;;;17.10;99.90;;;;;;8246780;28;20045;-83
2023/07/06 19:45:13;;;;;;;6.60;4.00;;;17.10;99.90;;;;;;8249419;28;20035;-83
2023/07/06 19:49:13;;;;;;;6.00;4.13;;;17.10;99.90;;;;;;8244673;28;20035;-83
2023/07/06 19:53:14;;;;;;;6.32;3.85;;;17.30;99.90;;;;;;8280123;28;20031;-82
2023/07/06 19:57:14;;;;;;;7.10;3.72;;;17.00;99.90;;;;;;8262252;28;20034;-82
2023/07/06 20:01:19;;;;;;;5.20;3.65;;;16.60;99.90;;;;;;8259243;28;20054;-83
2023/07/06 20:05:19;;;;;;;6.15;3.90;;;16.30;99.90;;;;;;8252025;28;20042;-83
2023/07/06 20:09:20;;;;;;;7.07;3.72;;;16.10;99.90;;;;;;8266026;28;20026;-83
2023/07/06 20:13:21;;;;;;;6.28;3.53;;;16.10;99.90;;;;;;8269240;28;20109;-83
2023/07/06 20:17:22;;;;;;;6.55;3.95;;;15.90;99.90;;;;;;8265821;28;20041;-83
2023/07/06 20:21:23;;;;;;;6.45;3.95;;;15.90;99.90;;;;;;8272028;28;20038;-82
2023/07/06 20:25:23;;;;;;;6.88;4.50;;;15.80;99.90;;;;;;8316140;28;20034;-83
2023/07/06 20:29:24;;;;;;;6.13;4.50;;;15.80;99.90;;;;;;8294822;28;20069;-83
2023/07/06 20:33:24;;;;;;;9.43;4.30;;;15.70;99.90;;;;;;8266242;28;20026;-83
2023/07/06 20:37:25;;;;;;;4.78;3.78;;;15.60;99.90;;;;;;8276999;28;20595;-83
2023/07/06 20:41:27;;;;;;;4.75;3.80;;;15.40;99.90;;;;;;8273282;28;20030;-83
2023/07/06 20:45:28;;;;;;;5.95;3.88;;;15.20;99.90;;;;;;8265290;28;20119;-81
2023/07/06 20:49:29;;;;;;;6.95;4.30;;;15.10;99.90;;;;;;8272990;28;20033;-82
2023/07/06 20:53:29;;;;;;;6.13;4.35;;;15.00;99.90;;;;;;8290551;28;20503;-82
2023/07/06 20:57:30;;;;;;;8.60;4.32;;;14.90;99.90;;;;;;8269544;28;20030;-82
2023/07/06 21:01:30;;;;;;;7.90;4.32;;;14.80;99.90;;;;;;8295727;28;20022;-83
2023/07/06 21:05:31;;;;;;;7.70;4.18;;;14.80;99.90;;;;;;8278324;28;20396;-82
2023/07/06 21:09:31;;;;;;;6.22;3.90;;;14.70;99.90;;;;;;8279723;28;20018;-83
2023/07/06 21:13:32;;;;;;;7.72;4.32;;;14.50;99.90;;;;;;8271062;28;20030;-82
2023/07/06 21:17:32;;;;;;;6.88;4.30;;;14.50;99.90;;;;;;8264628;28;20038;-83
2023/07/06 21:21:34;;;;;;;5.85;4.22;;;14.40;99.90;;;;;;8272492;28;20128;-82
2023/07/06 21:25:35;;;;;;;6.43;4.30;;;14.40;99.90;;;;;;8292326;28;20117;-83
2023/07/06 21:29:35;;;;;;;6.55;4.68;;;14.20;99.90;;;;;;8276022;28;20041;-83
2023/07/06 21:33:36;;;;;;;6.80;4.38;;;14.40;99.90;;;;;;8265752;28;20019;-83